Time;durP1;ratioP1;P1;durP2;ratioP2;P2;SDS_P1;SDS_P2;PMS_P1;PMS_P2;Temp;Humidity;BMP_temperature;BMP_pressure;BME280_temperature;BME280_humidity;BME280_pressure;Samples;Min_cycle;Max_cycle;Signal;HPM_P1;HPM_P2
2021/09/14 00:02:05;;;;;;;12.20;6.03;;;15.50;99.90;;;;;;5089800;28;20537;-70
2021/09/14 00:04:32;;;;;;;6.97;5.80;;;15.50;99.90;;;;;;5089606;28;20442;-72
2021/09/14 00:07:02;;;;;;;7.87;5.20;;;15.50;99.90;;;;;;5085146;28;20497;-71
2021/09/14 00:09:29;;;;;;;8.87;5.77;;;15.50;99.90;;;;;;5089765;28;20454;-71
2021/09/14 00:11:56;;;;;;;8.67;6.20;;;15.50;99.90;;;;;;5095758;28;20480;-73
2021/09/14 00:14:23;;;;;;;9.23;6.27;;;15.60;99.90;;;;;;5103385;28;20437;-70
2021/09/14 00:16:50;;;;;;;7.17;5.90;;;15.50;99.90;;;;;;5092357;28;20469;-70
2021/09/14 00:19:17;;;;;;;7.60;5.80;;;15.50;99.90;;;;;;5091200;28;20458;-70
2021/09/14 00:21:44;;;;;;;9.90;6.47;;;15.50;99.90;;;;;;5088785;28;20464;-70
2021/09/14 00:24:12;;;;;;;10.23;5.83;;;15.60;99.90;;;;;;5088596;28;20445;-70
2021/09/14 00:26:39;;;;;;;12.07;6.83;;;15.50;99.90;;;;;;5089919;28;20553;-71
2021/09/14 00:29:06;;;;;;;10.53;5.43;;;15.50;99.90;;;;;;5090570;28;20508;-73
2021/09/14 00:31:33;;;;;;;11.43;5.77;;;15.50;99.90;;;;;;5087981;28;20462;-71
2021/09/14 00:34:00;;;;;;;11.70;7.47;;;15.50;99.90;;;;;;5089791;28;20460;-74
2021/09/14 00:36:27;;;;;;;8.27;6.40;;;15.50;99.90;;;;;;5089543;28;21065;-71
2021/09/14 00:38:54;;;;;;;7.33;6.30;;;15.50;99.90;;;;;;5088684;28;21049;-71
2021/09/14 00:41:22;;;;;;;10.70;5.73;;;15.40;99.90;;;;;;5089306;28;20489;-71
2021/09/14 00:43:57;;;;;;;7.20;5.80;;;15.30;99.90;;;;;;5089585;28;20450;-72
2021/09/14 00:46:24;;;;;;;7.73;5.83;;;15.20;99.90;;;;;;5090109;28;21024;-71
2021/09/14 00:48:51;;;;;;;6.70;4.73;;;15.10;99.90;;;;;;5090591;28;20572;-71
2021/09/14 00:51:18;;;;;;;7.67;4.90;;;15.20;99.90;;;;;;5089271;28;20458;-71
2021/09/14 00:53:47;;;;;;;9.37;5.77;;;15.20;99.90;;;;;;5091555;28;20476;-72
2021/09/14 00:56:14;;;;;;;7.63;6.13;;;15.20;99.90;;;;;;5091471;28;20470;-72
2021/09/14 00:58:43;;;;;;;9.17;5.90;;;15.10;99.90;;;;;;5087812;28;20519;-72
2021/09/14 01:01:10;;;;;;;13.03;7.20;;;15.20;99.90;;;;;;5083193;28;20464;-74
2021/09/14 01:03:37;;;;;;;12.53;5.93;;;15.10;99.90;;;;;;5089214;28;20442;-74
2021/09/14 01:06:05;;;;;;;9.43;5.73;;;15.20;99.90;;;;;;5091386;28;20470;-72
2021/09/14 01:08:34;;;;;;;8.20;5.57;;;15.10;99.90;;;;;;5090485;28;20473;-71
2021/09/14 01:11:02;;;;;;;6.10;4.87;;;15.10;99.90;;;;;;5088220;28;20458;-70
2021/09/14 01:13:29;;;;;;;7.53;5.73;;;15.10;99.90;;;;;;5089624;28;20496;-71
2021/09/14 01:16:03;;;;;;;10.07;6.37;;;15.10;99.90;;;;;;5089466;28;20887;-71
2021/09/14 01:18:30;;;;;;;7.70;5.97;;;15.00;99.90;;;;;;5093875;28;20421;-70
2021/09/14 01:20:57;;;;;;;5.10;4.60;;;15.10;99.90;;;;;;5088632;28;20587;-70
2021/09/14 01:23:25;;;;;;;9.80;5.40;;;15.00;99.90;;;;;;5083291;28;20481;-70
2021/09/14 01:25:52;;;;;;;4.80;4.23;;;15.10;99.90;;;;;;5092971;28;20461;-69
2021/09/14 01:28:19;;;;;;;6.80;4.90;;;14.90;99.90;;;;;;5091627;28;20565;-69
2021/09/14 01:30:46;;;;;;;7.33;5.33;;;14.70;99.90;;;;;;5086125;28;20556;-72
2021/09/14 01:33:15;;;;;;;9.50;6.83;;;14.80;99.90;;;;;;5093297;28;20445;-70
2021/09/14 01:35:43;;;;;;;7.60;5.30;;;14.80;99.90;;;;;;5091450;28;20867;-70
2021/09/14 01:38:10;;;;;;;6.83;5.00;;;14.80;99.90;;;;;;5087606;28;20972;-71
2021/09/14 01:40:39;;;;;;;9.13;5.70;;;14.80;99.90;;;;;;5088808;28;20457;-69
2021/09/14 01:43:07;;;;;;;23.10;5.83;;;14.80;99.90;;;;;;5086128;28;20457;-69
2021/09/14 01:45:34;;;;;;;8.63;5.27;;;14.50;99.90;;;;;;5091614;28;20473;-69
2021/09/14 01:48:01;;;;;;;9.43;5.63;;;14.40;99.90;;;;;;5092658;28;20521;-69
2021/09/14 01:50:28;;;;;;;9.60;5.90;;;14.20;99.90;;;;;;5089930;28;20512;-72
2021/09/14 01:52:56;;;;;;;8.47;5.20;;;14.20;99.90;;;;;;5093112;28;20537;-72
2021/09/14 01:55:23;;;;;;;9.17;6.57;;;14.30;99.90;;;;;;5091217;28;20547;-73
2021/09/14 01:57:52;;;;;;;9.40;5.70;;;14.40;99.90;;;;;;5090563;28;20513;-73
2021/09/14 02:00:21;;;;;;;8.10;5.40;;;14.40;99.90;;;;;;5090780;28;20462;-73
2021/09/14 02:03:15;;;;;;;6.57;4.73;;;14.40;99.90;;;;;;5091121;28;20450;-73
2021/09/14 02:39:23;;;;;;;5.30;4.57;;;14.10;99.90;;;;;;5083099;28;20445;-70
2021/09/14 02:42:06;;;;;;;6.37;4.27;;;14.10;99.90;;;;;;5089307;28;20954;-73
2021/09/14 02:58:40;;;;;;;7.23;6.10;;;14.10;99.90;;;;;;5087724;28;20460;-70
2021/09/14 03:01:07;;;;;;;6.00;5.20;;;14.00;99.90;;;;;;5091620;28;20903;-73
2021/09/14 03:03:36;;;;;;;5.80;4.83;;;14.00;99.90;;;;;;5087213;28;20521;-70
2021/09/14 03:06:03;;;;;;;10.27;6.40;;;14.00;99.90;;;;;;5089522;28;20538;-71
2021/09/14 03:08:32;;;;;;;6.57;4.70;;;14.00;99.90;;;;;;5087324;28;20481;-70
2021/09/14 03:11:03;;;;;;;10.47;5.50;;;14.00;99.90;;;;;;5088965;28;20472;-70
2021/09/14 03:13:30;;;;;;;6.13;4.27;;;14.00;99.90;;;;;;5088633;28;20442;-70
2021/09/14 03:15:57;;;;;;;9.53;4.53;;;13.90;99.90;;;;;;5086914;28;20552;-69
2021/09/14 03:18:24;;;;;;;9.73;5.37;;;13.90;99.90;;;;;;5090426;28;20507;-72
2021/09/14 03:20:53;;;;;;;6.80;4.67;;;13.90;99.90;;;;;;5089260;28;20530;-70
2021/09/14 03:23:19;;;;;;;7.67;4.77;;;13.90;99.90;;;;;;5091173;28;20503;-69
2021/09/14 03:25:46;;;;;;;9.63;5.40;;;13.90;99.90;;;;;;5090586;28;20879;-70
2021/09/14 03:28:13;;;;;;;6.97;4.70;;;13.80;99.90;;;;;;5090574;28;20970;-71
2021/09/14 03:30:40;;;;;;;11.07;4.43;;;13.80;99.90;;;;;;5089806;28;20466;-70
2021/09/14 03:33:09;;;;;;;8.00;4.10;;;13.80;99.90;;;;;;5086815;28;20485;-73
2021/09/14 03:35:36;;;;;;;4.90;4.17;;;13.70;99.90;;;;;;5090349;28;20461;-71
2021/09/14 03:38:04;;;;;;;6.30;4.87;;;13.70;99.90;;;;;;5091547;28;20537;-71
2021/09/14 03:40:31;;;;;;;7.50;5.00;;;13.70;99.90;;;;;;5085722;28;20542;-72
2021/09/14 03:42:58;;;;;;;6.30;4.37;;;13.70;99.90;;;;;;5090696;28;20457;-73
2021/09/14 03:45:25;;;;;;;11.40;5.10;;;13.70;99.90;;;;;;5091164;28;20449;-70
2021/09/14 03:47:52;;;;;;;7.00;5.00;;;13.70;99.90;;;;;;5088812;28;20553;-71
2021/09/14 03:50:19;;;;;;;8.47;4.33;;;13.70;99.90;;;;;;5086905;28;20485;-70
2021/09/14 03:52:46;;;;;;;5.97;4.63;;;13.80;99.90;;;;;;5089882;28;20487;-73
2021/09/14 03:55:14;;;;;;;8.10;4.70;;;13.70;99.90;;;;;;5088800;28;20541;-70
2021/09/14 03:57:41;;;;;;;12.40;5.27;;;13.60;99.90;;;;;;5096227;28;20470;-70
2021/09/14 04:00:09;;;;;;;8.17;5.27;;;13.60;99.90;;;;;;5103535;28;20462;-74
2021/09/14 04:02:38;;;;;;;5.43;4.13;;;13.50;99.90;;;;;;5090687;28;20514;-71
2021/09/14 04:05:29;;;;;;;6.23;5.17;;;13.60;99.90;;;;;;5087304;28;20485;-67
2021/09/14 04:08:50;;;;;;;4.43;3.33;;;13.50;99.90;;;;;;5089086;28;20461;-67
2021/09/14 04:10:56;;;;;;;7.10;5.40;;;13.40;99.90;;;;;;5088053;28;20985;-69
2021/09/14 04:13:23;;;;;;;5.10;3.93;;;13.30;99.90;;;;;;5087168;28;20429;-68
2021/09/14 04:15:50;;;;;;;8.27;4.93;;;13.40;99.90;;;;;;5090587;28;20905;-67
2021/09/14 04:18:17;;;;;;;8.87;5.67;;;13.40;99.90;;;;;;5085032;28;20841;-67
2021/09/14 04:20:44;;;;;;;6.83;5.00;;;13.30;99.90;;;;;;5088114;28;20465;-68
2021/09/14 04:23:11;;;;;;;5.90;5.30;;;13.30;99.90;;;;;;5090520;28;20462;-68
2021/09/14 04:25:38;;;;;;;6.87;5.07;;;13.30;99.90;;;;;;5090076;28;20496;-67
2021/09/14 04:28:07;;;;;;;13.33;5.80;;;13.30;99.90;;;;;;5089267;28;20547;-68
2021/09/14 04:30:34;;;;;;;4.50;3.80;;;13.30;99.90;;;;;;5087255;28;20456;-67
2021/09/14 04:33:01;;;;;;;7.03;4.97;;;13.30;99.90;;;;;;5088321;28;20788;-67
2021/09/14 04:35:29;;;;;;;7.07;5.10;;;13.30;99.90;;;;;;5088808;28;20922;-68
2021/09/14 04:37:56;;;;;;;15.17;7.63;;;13.40;99.90;;;;;;5084224;28;20462;-68
2021/09/14 04:40:23;;;;;;;10.50;8.10;;;13.40;99.90;;;;;;5089102;28;20454;-69
2021/09/14 04:42:50;;;;;;;7.90;5.20;;;13.40;99.90;;;;;;5087402;28;20511;-67
2021/09/14 04:45:18;;;;;;;9.03;6.70;;;13.40;99.90;;;;;;5088345;28;20496;-67
2021/09/14 04:47:45;;;;;;;10.87;5.30;;;13.40;99.90;;;;;;5086883;28;20885;-67
2021/09/14 04:50:12;;;;;;;11.47;6.50;;;13.40;99.90;;;;;;5087238;28;20542;-69
2021/09/14 04:52:39;;;;;;;6.47;5.30;;;13.40;99.90;;;;;;5088027;28;20454;-67
2021/09/14 04:55:07;;;;;;;8.70;5.27;;;13.40;99.90;;;;;;5087881;28;20485;-68
2021/09/14 04:57:34;;;;;;;7.67;5.10;;;13.40;99.90;;;;;;5089437;28;20541;-69
2021/09/14 05:00:02;;;;;;;12.70;7.10;;;13.50;99.90;;;;;;5086207;28;20965;-67
2021/09/14 05:02:30;;;;;;;9.10;5.93;;;13.50;99.90;;;;;;5089050;28;20481;-67
2021/09/14 05:04:58;;;;;;;8.97;7.23;;;13.50;99.90;;;;;;5075556;22;20936;-70
2021/09/14 05:07:25;;;;;;;12.87;6.40;;;13.50;99.90;;;;;;5063964;28;20446;-70
2021/09/14 05:09:52;;;;;;;8.77;5.67;;;13.50;99.90;;;;;;5067536;28;20510;-70
2021/09/14 05:12:19;;;;;;;12.30;6.23;;;13.40;99.90;;;;;;5068560;28;20482;-70
2021/09/14 05:14:46;;;;;;;13.57;6.60;;;13.40;99.90;;;;;;5058449;28;20884;-70
2021/09/14 05:17:13;;;;;;;14.10;7.07;;;13.40;99.90;;;;;;5038627;28;20452;-70
2021/09/14 05:19:42;;;;;;;10.60;6.53;;;13.40;99.90;;;;;;5038168;28;20491;-70
2021/09/14 05:22:09;;;;;;;17.93;7.93;;;13.40;99.90;;;;;;5046283;28;20455;-70
2021/09/14 05:24:36;;;;;;;12.47;7.50;;;13.50;99.90;;;;;;5042694;28;20506;-70
2021/09/14 05:27:03;;;;;;;12.67;7.63;;;13.50;99.90;;;;;;5047828;28;20538;-69
2021/09/14 05:29:30;;;;;;;14.13;8.40;;;13.60;99.90;;;;;;5036919;28;20566;-70
2021/09/14 05:31:57;;;;;;;15.63;7.30;;;13.60;99.90;;;;;;5037805;28;20564;-71
2021/09/14 05:34:25;;;;;;;12.97;8.13;;;13.70;99.90;;;;;;5043469;28;20507;-70
2021/09/14 05:36:54;;;;;;;12.77;8.50;;;13.70;99.90;;;;;;5046850;28;20526;-71
2021/09/14 05:39:22;;;;;;;11.47;7.70;;;13.80;99.90;;;;;;5040190;28;20463;-70
2021/09/14 05:41:49;;;;;;;11.77;8.67;;;13.90;99.90;;;;;;5042940;28;20463;-71
2021/09/14 05:44:16;;;;;;;9.80;6.37;;;13.90;99.90;;;;;;5044187;28;20471;-71
2021/09/14 05:46:43;;;;;;;10.73;7.30;;;13.80;99.90;;;;;;5039549;28;20562;-71
2021/09/14 05:49:10;;;;;;;10.50;6.77;;;13.80;99.90;;;;;;5043720;28;20479;-72
2021/09/14 05:51:37;;;;;;;20.23;7.93;;;13.90;99.90;;;;;;5041811;28;20939;-71
2021/09/14 05:54:05;;;;;;;18.00;7.40;;;14.00;99.90;;;;;;5043424;28;20499;-70
2021/09/14 05:56:32;;;;;;;11.50;6.53;;;14.00;99.90;;;;;;5037309;28;20535;-70
2021/09/14 05:59:00;;;;;;;9.53;6.03;;;14.00;99.90;;;;;;5044316;28;20483;-70
2021/09/14 06:01:27;;;;;;;9.83;6.60;;;13.90;99.90;;;;;;5043675;28;20538;-69
2021/09/14 06:03:54;;;;;;;11.70;7.00;;;14.10;99.90;;;;;;5019149;28;20451;-70
2021/09/14 06:06:21;;;;;;;14.60;7.07;;;14.30;99.90;;;;;;5041963;28;20432;-70
2021/09/14 06:08:48;;;;;;;19.37;7.03;;;14.50;99.90;;;;;;5037637;28;20624;-70
2021/09/14 06:11:17;;;;;;;11.73;7.77;;;14.50;99.90;;;;;;5042276;28;20463;-70
2021/09/14 06:13:44;;;;;;;11.73;7.23;;;14.60;99.90;;;;;;5048595;28;20486;-70
2021/09/14 06:16:11;;;;;;;9.50;6.83;;;14.70;99.90;;;;;;5047391;28;20526;-70
2021/09/14 06:18:38;;;;;;;13.97;6.87;;;14.80;99.90;;;;;;5040085;28;20458;-70
2021/09/14 06:21:06;;;;;;;12.53;8.63;;;14.80;99.90;;;;;;5041898;28;20459;-70
2021/09/14 06:23:33;;;;;;;14.30;8.37;;;14.90;99.90;;;;;;5037646;28;20532;-70
2021/09/14 06:26:00;;;;;;;10.67;7.70;;;15.00;99.90;;;;;;5036078;28;20522;-70
2021/09/14 06:28:28;;;;;;;13.03;7.60;;;15.00;99.90;;;;;;5038146;28;20484;-69
2021/09/14 06:30:55;;;;;;;14.57;7.43;;;15.00;99.90;;;;;;5044142;28;20574;-71
2021/09/14 06:33:23;;;;;;;12.40;7.20;;;15.10;99.90;;;;;;5041288;28;20521;-70
2021/09/14 06:35:50;;;;;;;11.13;7.07;;;15.10;99.90;;;;;;5037014;28;20507;-70
2021/09/14 06:38:17;;;;;;;11.67;7.70;;;15.00;99.90;;;;;;5035971;28;20981;-70
2021/09/14 06:40:44;;;;;;;16.33;7.93;;;15.10;99.90;;;;;;5038208;28;20883;-70
2021/09/14 06:43:11;;;;;;;11.53;7.50;;;15.30;99.90;;;;;;5045654;28;20456;-70
2021/09/14 06:45:40;;;;;;;11.53;8.43;;;15.40;99.90;;;;;;5045209;28;20495;-70
2021/09/14 06:48:09;;;;;;;10.43;7.77;;;15.60;99.90;;;;;;5039782;28;20534;-70
2021/09/14 06:50:36;;;;;;;18.77;7.93;;;15.90;99.90;;;;;;5042444;28;20484;-71
2021/09/14 06:53:03;;;;;;;11.90;7.20;;;16.10;99.90;;;;;;5047195;28;20531;-70
2021/09/14 06:55:29;;;;;;;7.80;6.07;;;16.80;99.90;;;;;;5040934;28;20534;-70
2021/09/14 06:57:56;;;;;;;11.37;7.43;;;17.40;99.90;;;;;;5048209;28;20538;-70
2021/09/14 07:00:25;;;;;;;8.33;5.80;;;17.70;99.90;;;;;;5045706;28;20876;-70
2021/09/14 07:02:54;;;;;;;9.40;6.03;;;18.00;99.90;;;;;;5039221;28;20444;-69
2021/09/14 07:05:21;;;;;;;10.60;7.00;;;18.10;99.90;;;;;;5053229;28;20566;-71
2021/09/14 07:07:48;;;;;;;8.30;6.37;;;18.10;99.90;;;;;;5032214;28;20457;-71
2021/09/14 07:10:14;;;;;;;10.30;7.10;;;18.00;99.90;;;;;;5039080;28;20578;-71
2021/09/14 07:12:41;;;;;;;11.33;7.20;;;17.80;99.90;;;;;;5032304;28;20498;-71
2021/09/14 07:15:09;;;;;;;13.50;7.13;;;17.80;99.90;;;;;;5043036;28;20891;-70
2021/09/14 07:17:38;;;;;;;12.80;7.50;;;17.40;99.90;;;;;;5043887;28;20953;-71
2021/09/14 07:20:08;;;;;;;11.53;7.03;;;17.60;99.90;;;;;;5047291;28;20468;-71
2021/09/14 07:22:35;;;;;;;19.23;7.40;;;17.70;99.90;;;;;;5033940;28;20453;-70
2021/09/14 07:25:03;;;;;;;11.57;6.93;;;17.80;99.90;;;;;;5043929;28;20529;-70
2021/09/14 07:27:30;;;;;;;10.13;7.07;;;17.80;99.90;;;;;;5043017;28;20475;-68
2021/09/14 07:29:57;;;;;;;9.23;6.37;;;18.00;99.90;;;;;;5037769;28;20575;-69
2021/09/14 07:32:24;;;;;;;15.07;7.80;;;18.10;99.90;;;;;;5043084;28;20928;-69
2021/09/14 07:34:51;;;;;;;8.43;6.37;;;18.10;99.90;;;;;;5041866;28;20547;-69
2021/09/14 07:37:19;;;;;;;10.00;6.10;;;18.30;99.90;;;;;;5037935;28;20547;-69
2021/09/14 07:39:46;;;;;;;7.90;6.50;;;18.40;99.90;;;;;;5046734;28;20476;-70
2021/09/14 07:42:13;;;;;;;9.33;5.77;;;18.20;99.90;;;;;;5037947;28;20463;-72
2021/09/14 07:44:40;;;;;;;10.97;5.77;;;18.50;99.90;;;;;;5045083;28;20495;-71
2021/09/14 07:47:07;;;;;;;9.67;6.23;;;18.50;99.90;;;;;;5037629;28;20538;-71
2021/09/14 07:49:34;;;;;;;11.73;6.43;;;18.60;99.90;;;;;;5043122;28;20523;-71
2021/09/14 07:52:01;;;;;;;6.73;6.00;;;18.80;99.90;;;;;;5044246;28;20897;-71
2021/09/14 07:54:30;;;;;;;9.10;6.60;;;18.90;99.90;;;;;;5042517;28;20567;-71
2021/09/14 07:56:57;;;;;;;11.20;6.57;;;19.30;99.90;;;;;;5047731;28;20459;-71
2021/09/14 07:59:24;;;;;;;10.33;7.43;;;19.60;99.90;;;;;;5047710;28;20867;-71
2021/09/14 08:01:51;;;;;;;9.23;6.27;;;19.90;99.90;;;;;;5045831;28;20464;-72
2021/09/14 08:04:18;;;;;;;9.30;6.60;;;20.10;99.90;;;;;;5039924;28;20514;-71
2021/09/14 08:06:45;;;;;;;6.90;6.13;;;20.40;99.90;;;;;;5036460;28;20455;-72
2021/09/14 08:09:12;;;;;;;9.67;6.20;;;20.60;99.90;;;;;;5041699;28;21022;-71
2021/09/14 08:11:42;;;;;;;13.17;6.50;;;20.80;99.90;;;;;;5043560;28;20476;-72
2021/09/14 08:14:09;;;;;;;8.50;6.27;;;20.60;99.90;;;;;;5044272;28;20478;-71
2021/09/14 08:16:36;;;;;;;8.13;5.83;;;20.50;99.90;;;;;;5037682;28;20524;-72
2021/09/14 08:19:02;;;;;;;13.47;6.23;;;20.60;99.90;;;;;;5042260;28;20461;-71
2021/09/14 08:21:29;;;;;;;11.73;7.17;;;20.60;99.90;;;;;;5045755;28;21043;-71
2021/09/14 08:23:56;;;;;;;7.70;6.23;;;20.50;99.90;;;;;;5039511;28;20464;-70
2021/09/14 08:26:23;;;;;;;46.20;9.17;;;20.50;99.90;;;;;;5042704;28;20476;-71
2021/09/14 08:28:52;;;;;;;9.87;6.57;;;20.70;99.90;;;;;;5039351;28;21026;-71
2021/09/14 08:31:19;;;;;;;8.90;6.80;;;20.80;99.90;;;;;;5043984;28;20483;-72
2021/09/14 08:33:46;;;;;;;10.97;6.20;;;21.30;99.90;;;;;;5042310;28;20538;-71
2021/09/14 08:36:13;;;;;;;14.83;6.93;;;22.10;99.90;;;;;;5039086;28;20483;-71
2021/09/14 08:38:40;;;;;;;10.60;8.00;;;23.00;99.90;;;;;;5044392;28;20546;-71
2021/09/14 08:41:08;;;;;;;8.83;6.30;;;23.80;99.90;;;;;;5046394;28;20502;-72
2021/09/14 08:43:38;;;;;;;9.37;6.80;;;24.30;99.90;;;;;;5041754;28;20904;-72
2021/09/14 08:46:06;;;;;;;13.70;7.20;;;24.80;99.90;;;;;;5049126;28;20902;-73
2021/09/14 08:48:36;;;;;;;14.70;8.60;;;25.10;99.90;;;;;;5042675;28;20559;-72
2021/09/14 08:51:04;;;;;;;9.53;7.00;;;24.50;99.90;;;;;;5046799;28;20493;-74
2021/09/14 08:53:34;;;;;;;13.30;7.87;;;25.20;99.90;;;;;;5043662;28;20997;-73
2021/09/14 08:56:00;;;;;;;11.67;8.63;;;25.60;99.90;;;;;;5053885;28;20827;-72
2021/09/14 08:58:27;;;;;;;11.37;7.60;;;25.50;99.90;;;;;;5043522;28;20461;-70
2021/09/14 09:00:54;;;;;;;12.13;7.77;;;25.40;99.90;;;;;;5047725;28;20959;-72
2021/09/14 09:03:24;;;;;;;14.83;8.20;;;25.80;99.90;;;;;;5035450;28;20540;-71
2021/09/14 09:05:51;;;;;;;14.90;8.07;;;26.00;99.90;;;;;;5034897;28;20583;-72
2021/09/14 09:08:19;;;;;;;12.73;8.10;;;25.70;99.90;;;;;;5033917;28;20925;-71
2021/09/14 09:11:00;;;;;;;14.60;8.77;;;25.60;99.90;;;;;;5037475;28;20534;-71
2021/09/14 09:13:27;;;;;;;11.90;7.53;;;25.70;99.90;;;;;;5037472;28;20526;-72
2021/09/14 09:15:54;;;;;;;13.10;8.00;;;26.00;99.90;;;;;;5040675;28;20890;-72
2021/09/14 09:18:23;;;;;;;11.13;8.00;;;27.00;99.90;;;;;;5041752;28;20517;-70
2021/09/14 09:20:50;;;;;;;10.57;7.80;;;28.40;99.90;;;;;;5039763;28;20455;-70
2021/09/14 09:23:22;;;;;;;9.93;7.10;;;29.00;99.90;;;;;;5036878;28;20584;-70
2021/09/14 09:25:50;;;;;;;10.90;8.10;;;29.40;99.90;;;;;;5051609;28;20475;-71
2021/09/14 09:28:21;;;;;;;14.23;7.83;;;29.60;99.90;;;;;;5043312;28;20468;-72
2021/09/14 09:30:56;;;;;;;19.70;9.80;;;30.10;99.90;;;;;;5038360;28;20487;-71
2021/09/14 09:33:26;;;;;;;10.57;8.17;;;31.10;99.90;;;;;;5034320;28;20448;-72
2021/09/14 09:36:00;;;;;;;14.97;9.20;;;31.80;99.90;;;;;;5044344;28;20571;-71
2021/09/14 09:38:27;;;;;;;16.40;7.30;;;32.20;98.80;;;;;;5043733;28;20443;-69
2021/09/14 09:40:55;;;;;;;12.00;6.60;;;31.70;99.20;;;;;;5049501;28;20459;-71
2021/09/14 09:43:29;;;;;;;8.90;7.20;;;31.90;99.40;;;;;;5039862;28;20502;-71
2021/09/14 09:46:07;;;;;;;9.63;7.10;;;32.10;98.50;;;;;;5044128;28;20494;-72
2021/09/14 09:48:37;;;;;;;8.73;7.77;;;32.20;97.20;;;;;;5045863;28;20936;-71
2021/09/14 09:51:04;;;;;;;18.33;7.37;;;32.50;96.10;;;;;;5045678;28;20554;-72
2021/09/14 09:53:33;;;;;;;9.43;7.80;;;33.00;95.40;;;;;;5047185;28;20550;-71
2021/09/14 09:56:02;;;;;;;17.17;7.77;;;33.10;94.90;;;;;;5035785;28;20559;-71
2021/09/14 09:58:29;;;;;;;8.43;6.40;;;32.90;94.70;;;;;;5046325;28;21000;-70
2021/09/14 10:01:01;;;;;;;8.57;7.30;;;33.20;94.80;;;;;;5043777;28;20502;-70
2021/09/14 10:03:30;;;;;;;7.93;6.40;;;32.90;94.00;;;;;;5043600;28;21028;-71
2021/09/14 10:06:01;;;;;;;9.43;7.50;;;33.30;93.50;;;;;;5038112;28;20503;-71
2021/09/14 10:08:29;;;;;;;22.87;7.10;;;33.60;93.00;;;;;;5041722;28;20525;-71
2021/09/14 10:10:58;;;;;;;7.33;6.50;;;33.90;92.50;;;;;;5037175;28;20488;-68
2021/09/14 10:13:31;;;;;;;7.33;6.63;;;33.40;92.70;;;;;;5040345;28;20455;-72
2021/09/14 10:15:58;;;;;;;7.70;4.73;;;33.80;91.80;;;;;;5043293;28;20511;-72
2021/09/14 10:18:31;;;;;;;8.83;6.33;;;33.70;90.50;;;;;;5041674;28;20455;-72
2021/09/14 10:21:03;;;;;;;10.73;5.47;;;33.00;91.20;;;;;;5037520;28;20456;-71
2021/09/14 10:23:34;;;;;;;13.00;8.00;;;33.00;93.10;;;;;;5036405;28;20531;-68
2021/09/14 10:26:06;;;;;;;7.63;5.50;;;33.80;91.70;;;;;;5035826;28;20757;-70
2021/09/14 10:28:47;;;;;;;6.40;5.53;;;34.10;91.00;;;;;;5037191;28;20470;-70
2021/09/14 10:31:23;;;;;;;6.47;5.60;;;34.60;90.30;;;;;;5041234;28;21133;-71
2021/09/14 10:34:02;;;;;;;6.20;5.40;;;35.20;89.00;;;;;;5034227;28;20451;-71
2021/09/14 10:36:31;;;;;;;8.67;5.93;;;34.80;88.70;;;;;;5034371;28;20444;-71
2021/09/14 10:38:59;;;;;;;4.77;4.27;;;34.90;87.00;;;;;;5038798;28;20506;-71
2021/09/14 10:41:36;;;;;;;5.80;4.50;;;35.10;86.50;;;;;;5045028;28;20494;-71
2021/09/14 10:44:07;;;;;;;7.93;4.80;;;35.70;86.20;;;;;;5036164;28;20805;-72
2021/09/14 10:46:34;;;;;;;6.40;5.10;;;36.10;83.40;;;;;;5043985;28;20454;-71
2021/09/14 10:49:01;;;;;;;5.93;4.93;;;36.10;80.70;;;;;;5032427;28;20487;-71
2021/09/14 10:51:29;;;;;;;6.70;4.60;;;35.70;80.60;;;;;;5037216;28;20522;-71
2021/09/14 10:53:58;;;;;;;4.40;4.00;;;35.10;80.40;;;;;;5047794;28;20538;-70
2021/09/14 10:56:26;;;;;;;4.43;4.03;;;34.90;81.20;;;;;;5040878;28;20490;-71
2021/09/14 10:58:54;;;;;;;5.03;4.20;;;35.10;82.70;;;;;;5034485;28;21027;-70
2021/09/14 11:01:25;;;;;;;4.27;3.80;;;35.60;80.70;;;;;;5034644;28;20475;-71
2021/09/14 11:04:03;;;;;;;6.70;3.80;;;35.20;79.70;;;;;;5031378;28;20456;-71
2021/09/14 11:06:32;;;;;;;6.77;3.83;;;35.10;80.10;;;;;;5018866;22;20892;-71
2021/09/14 11:08:59;;;;;;;5.40;3.50;;;34.80;79.70;;;;;;5006517;28;20496;-70
2021/09/14 11:11:27;;;;;;;6.73;3.97;;;34.50;81.20;;;;;;5007709;28;20543;-72
2021/09/14 11:13:54;;;;;;;4.80;3.77;;;33.80;81.40;;;;;;5008442;28;20454;-73
2021/09/14 11:16:22;;;;;;;4.30;3.90;;;33.80;82.70;;;;;;5008424;28;20473;-70
2021/09/14 11:18:49;;;;;;;9.57;4.80;;;34.10;82.70;;;;;;5006210;28;20498;-72
2021/09/14 11:21:18;;;;;;;19.37;5.30;;;33.90;83.40;;;;;;5007718;28;20497;-74
2021/09/14 11:23:48;;;;;;;16.70;4.40;;;34.50;83.00;;;;;;5005882;28;20450;-70
2021/09/14 11:26:17;;;;;;;4.67;3.73;;;34.90;81.10;;;;;;5008733;28;20554;-71
2021/09/14 11:28:56;;;;;;;4.83;3.80;;;35.30;79.40;;;;;;5004934;28;20460;-71
2021/09/14 11:31:23;;;;;;;5.33;4.43;;;35.80;79.10;;;;;;5012248;28;20473;-74
2021/09/14 11:33:50;;;;;;;4.00;3.53;;;36.00;78.00;;;;;;5008180;28;20532;-72
2021/09/14 11:36:17;;;;;;;4.10;3.70;;;36.30;79.40;;;;;;5002938;28;20572;-75
2021/09/14 11:38:44;;;;;;;4.30;3.00;;;36.90;77.30;;;;;;5005277;28;20551;-73
2021/09/14 11:41:13;;;;;;;4.07;3.67;;;37.20;75.70;;;;;;5011064;28;20485;-77
2021/09/14 11:43:43;;;;;;;3.17;2.87;;;37.40;75.10;;;;;;5010107;28;20976;-72
2021/09/14 11:46:15;;;;;;;5.20;3.70;;;37.70;76.10;;;;;;5008267;28;20465;-73
2021/09/14 11:48:53;;;;;;;3.90;3.47;;;37.90;71.50;;;;;;5003973;28;20461;-71
2021/09/14 11:51:20;;;;;;;4.53;2.93;;;38.10;72.20;;;;;;5006313;28;20469;-72
2021/09/14 11:53:49;;;;;;;5.83;4.60;;;38.20;70.50;;;;;;5005214;28;20449;-77
2021/09/14 11:56:20;;;;;;;5.03;3.03;;;38.50;68.80;;;;;;5002443;28;20465;-71
2021/09/14 11:58:48;;;;;;;5.47;4.10;;;38.30;68.90;;;;;;5006781;28;20495;-74
2021/09/14 12:01:17;;;;;;;8.33;4.97;;;37.40;69.60;;;;;;4997390;28;20866;-73
2021/09/14 12:03:46;;;;;;;9.40;3.50;;;36.60;70.50;;;;;;5015749;28;20498;-71
2021/09/14 12:06:21;;;;;;;5.33;3.43;;;36.00;70.70;;;;;;5006332;28;20982;-70
2021/09/14 12:08:48;;;;;;;4.50;3.20;;;35.80;71.70;;;;;;5006060;28;20529;-70
2021/09/14 12:11:27;;;;;;;4.77;3.70;;;35.30;72.40;;;;;;5004102;28;20923;-70
2021/09/14 12:13:56;;;;;;;4.10;3.70;;;35.30;74.70;;;;;;4999600;28;20517;-75
2021/09/14 12:16:28;;;;;;;5.23;3.70;;;35.40;74.80;;;;;;5012486;28;20480;-72
2021/09/14 12:18:55;;;;;;;6.77;4.90;;;36.00;73.00;;;;;;4993682;28;20965;-71
2021/09/14 12:21:23;;;;;;;5.60;4.50;;;35.70;73.80;;;;;;5002891;28;20764;-71
2021/09/14 12:23:50;;;;;;;12.90;5.70;;;35.60;73.70;;;;;;5010545;28;20547;-75
2021/09/14 12:26:19;;;;;;;4.23;3.83;;;34.90;74.90;;;;;;5020945;28;20469;-71
2021/09/14 12:28:48;;;;;;;4.10;3.70;;;33.60;78.20;;;;;;5008057;28;20552;-76
2021/09/14 12:31:16;;;;;;;7.33;4.73;;;33.80;79.10;;;;;;5001551;28;20520;-69
2021/09/14 12:33:43;;;;;;;4.27;3.67;;;33.70;78.30;;;;;;5022312;28;20889;-71
2021/09/14 12:36:11;;;;;;;4.13;3.83;;;33.60;79.30;;;;;;5028184;28;20480;-71
2021/09/14 12:38:38;;;;;;;4.30;3.87;;;33.80;79.80;;;;;;5039505;28;20821;-70
2021/09/14 12:41:06;;;;;;;6.87;4.57;;;33.50;78.30;;;;;;5009482;28;20489;-70
2021/09/14 12:43:33;;;;;;;6.23;3.73;;;33.20;83.80;;;;;;5011652;28;20456;-70
2021/09/14 12:46:02;;;;;;;7.70;4.00;;;34.20;82.70;;;;;;5005510;28;20497;-71
2021/09/14 12:48:29;;;;;;;5.10;3.70;;;34.50;79.00;;;;;;5006441;28;20476;-74
2021/09/14 12:50:56;;;;;;;6.80;3.77;;;35.10;78.90;;;;;;5003038;28;20925;-71
2021/09/14 12:53:23;;;;;;;4.23;3.83;;;35.60;75.80;;;;;;5005478;28;20533;-74
2021/09/14 12:55:50;;;;;;;5.57;4.77;;;36.10;77.90;;;;;;5010268;28;20810;-71
2021/09/14 12:58:17;;;;;;;5.13;4.13;;;36.30;74.70;;;;;;5010704;28;20828;-75
2021/09/14 13:00:44;;;;;;;4.73;4.30;;;37.20;73.90;;;;;;4998444;28;20541;-72
2021/09/14 13:03:14;;;;;;;5.60;4.77;;;38.00;71.40;;;;;;5004436;28;20481;-72
2021/09/14 13:05:42;;;;;;;4.20;3.83;;;38.10;68.80;;;;;;5005583;28;20485;-72
2021/09/14 13:08:09;;;;;;;4.93;4.17;;;38.10;69.70;;;;;;5010147;28;20449;-72
2021/09/14 13:10:36;;;;;;;4.23;3.47;;;38.30;68.70;;;;;;5005031;28;21017;-74
2021/09/14 13:18:35;;;;;;;5.20;4.13;;;38.00;68.90;;;;;;5009956;28;20472;-74
2021/09/14 13:21:03;;;;;;;4.30;3.90;;;37.60;68.20;;;;;;5005439;28;20517;-71
2021/09/14 13:23:31;;;;;;;5.90;3.93;;;36.70;68.80;;;;;;5009957;28;20445;-72
2021/09/14 13:25:58;;;;;;;4.60;4.20;;;36.50;71.10;;;;;;5014077;28;20515;-74
2021/09/14 13:28:25;;;;;;;5.00;4.50;;;36.60;71.30;;;;;;5010133;28;20446;-72
2021/09/14 13:30:52;;;;;;;7.40;4.37;;;36.20;71.50;;;;;;5012307;28;20465;-75
2021/09/14 13:33:19;;;;;;;10.33;3.73;;;35.70;72.40;;;;;;5010978;28;20540;-76
2021/09/14 13:35:47;;;;;;;4.37;3.73;;;34.60;78.10;;;;;;5010338;28;20472;-75
2021/09/14 13:38:14;;;;;;;8.93;3.73;;;34.10;77.50;;;;;;5009435;28;20992;-74
2021/09/14 13:40:44;;;;;;;5.93;3.90;;;34.10;78.60;;;;;;5004094;28;20469;-74
2021/09/14 13:43:11;;;;;;;8.63;4.03;;;33.60;79.80;;;;;;5014392;28;20812;-72